Aérodrome :
LOGIN :

S'inscrire | Disclaimer

   EN    FR    IT 

 










Légende :    VFR   VFR Marginal   IFR   IFR Intensif   IFR Très Intensif
Visi : 
Plafond : 
>= 8 km
>= 3000ft
5 à 8 km
1000 à 3000 ft
1500m à 5 km
500 à 1000 ft
800 à 1500m
200 à 500 ft
< 800m
< 200 ft
Symboles :   Orages  Brouillard  Fortes neiges  Fortes précipitations  Vent > 20 kt
SIGMETs :   Divers  Orages  Givrage  Turbulence  Onde Orograph.  Cendres Volcan.







- Altitude de l'aérodrome : 348 ft
- Code IATA : STN
- Voir les cartes d'approche


EGSS - London Stansted

DERNIER METAR :
  • 230820Z AUTO VRB03KT 9999 NCD 19/15 Q1026

METARs EXPIRÉS :
  • 230750Z AUTO VRB02KT 9999 NCD 18/15 Q1026
  • 230720Z AUTO VRB03KT 9999 NCD 17/15 Q1026
  • 230650Z AUTO 26002KT 9999 NCD 16/14 Q1025
  • 230620Z AUTO 22003KT 9999 NCD 14/14 Q1025
  • 230550Z AUTO 25002KT 8000 NCD 13/13 Q1025

TAF AMD TAF EGSS
Valide du 23 à 06h jusqu'au 24 à 12h UTC


230639Z 2306/2412 22004KT CAVOK
PROB30
TEMPO 2306/2308 5000 BR BKN003
BECMG 2400/2403 8000
PROB30 2403/2406 3000 BR
BECMG 2406/2408 CAVOK
ATIS : +44 1279 669 325
Pas de NOTAMs connus pour ce terrain.



MET'MAP, la Météo Aéronautique d'un coup d'oeil ! - Copyright ORBIFLY Décembre 2007 - Disclaimer

ORBIFLY MET'MAP TEAM :

Programmation & Développement : Alexandra Zaïnal
Conception & Développement : Baudouin d'Aumeries
Co-Programmation & Développement : Marc-Olivier Méhu
Soutien technique & logistique : Manuel Goepfert

Contact : metmap@orbifly.com




SOURCES & CREDITS :

   NOAA